createdAt,value
2018-09-11T00:01:22.146Z,5.50
2018-09-11T00:03:54.800Z,4.93
2018-09-11T00:06:27.484Z,5.47
2018-09-11T00:09:00.520Z,5.63
2018-09-11T00:11:33.872Z,5.83
2018-09-11T00:14:06.447Z,5.70
2018-09-11T00:16:40.477Z,5.17
2018-09-11T00:19:14.128Z,5.53
2018-09-11T00:21:46.876Z,4.50
2018-09-11T00:24:19.873Z,4.73
2018-09-11T00:26:52.433Z,3.90
2018-09-11T00:29:25.981Z,4.47
2018-09-11T00:31:59.132Z,3.70
2018-09-11T00:34:31.831Z,3.60
2018-09-11T00:37:04.466Z,3.47
2018-09-11T00:39:37.913Z,3.27
2018-09-11T00:42:10.595Z,3.43
2018-09-11T00:44:43.175Z,3.50
2018-09-11T00:47:16.096Z,2.90
2018-09-11T00:49:49.090Z,2.90
2018-09-11T00:52:21.892Z,3.03
2018-09-11T00:54:55.067Z,2.97
2018-09-11T00:57:28.739Z,2.87
2018-09-11T01:00:01.625Z,2.80
2018-09-11T01:02:36.952Z,2.80
2018-09-11T01:05:10.285Z,2.90
2018-09-11T01:07:42.907Z,2.67
2018-09-11T01:10:15.920Z,2.73
2018-09-11T01:12:48.447Z,2.60
2018-09-11T01:15:22.064Z,2.80
2018-09-11T01:17:54.769Z,2.23
2018-09-11T01:20:27.368Z,2.63
2018-09-11T01:22:59.921Z,2.83
2018-09-11T01:25:33.376Z,2.60
2018-09-11T01:28:06.949Z,2.30
2018-09-11T01:30:39.727Z,2.83
2018-09-11T01:33:12.613Z,2.93
2018-09-11T01:35:45.212Z,2.72
2018-09-11T01:38:18.057Z,2.80
2018-09-11T01:40:50.780Z,2.87
2018-09-11T01:43:24.224Z,2.83
2018-09-11T01:45:57.300Z,3.17
2018-09-11T01:48:29.924Z,3.47
2018-09-11T01:51:04.015Z,3.50
2018-09-11T01:53:36.468Z,3.62
2018-09-11T01:56:09.141Z,2.73
2018-09-11T01:58:47.446Z,3.13
2018-09-11T02:01:21.072Z,3.57
2018-09-11T02:03:53.626Z,3.00
2018-09-11T02:06:28.081Z,3.57
2018-09-11T02:09:01.032Z,3.37
2018-09-11T02:11:33.660Z,3.37
2018-09-11T02:14:06.648Z,3.30
2018-09-11T02:16:39.180Z,3.13
2018-09-11T02:19:11.518Z,3.10
2018-09-11T02:21:44.484Z,3.30
2018-09-11T02:24:17.108Z,2.97
2018-09-11T02:26:49.929Z,3.67
2018-09-11T02:29:23.700Z,3.60
2018-09-11T02:31:56.290Z,3.20
2018-09-11T02:34:28.828Z,3.60
2018-09-11T02:37:02.880Z,3.37
2018-09-11T02:39:35.428Z,3.57
2018-09-11T02:42:08.256Z,3.60
2018-09-11T02:44:41.244Z,3.60
2018-09-11T02:47:13.801Z,3.30
2018-09-11T02:49:46.322Z,3.90
2018-09-11T02:52:19.176Z,3.40
2018-09-11T02:54:51.918Z,3.50
2018-09-11T02:57:24.745Z,3.03
2018-09-11T02:59:58.614Z,3.17
2018-09-11T03:02:31.540Z,2.97
2018-09-11T03:05:04.516Z,3.60
2018-09-11T03:07:37.538Z,3.50
2018-09-11T03:10:10.236Z,3.10
2018-09-11T03:12:43.076Z,3.40
2018-09-11T03:15:17.065Z,3.03
2018-09-11T03:17:50.437Z,3.33
2018-09-11T03:20:23.980Z,3.55
2018-09-11T03:22:56.784Z,3.03
2018-09-11T03:25:29.384Z,2.80
2018-09-11T03:28:02.223Z,2.80
2018-09-11T03:30:35.510Z,3.37
2018-09-11T03:33:08.471Z,2.70
2018-09-11T03:35:40.929Z,2.70
2018-09-11T03:38:16.948Z,2.90
2018-09-11T03:40:50.208Z,3.00
2018-09-11T03:43:22.896Z,3.00
2018-09-11T03:45:55.345Z,2.47
2018-09-11T03:48:28.272Z,2.85
2018-09-11T03:51:00.871Z,2.60
2018-09-11T03:53:33.572Z,2.87
2018-09-11T03:56:06.984Z,2.60
2018-09-11T03:58:39.658Z,3.12
2018-09-11T04:01:12.232Z,2.83
2018-09-11T04:03:47.477Z,2.53
2018-09-11T04:06:20.456Z,2.80
2018-09-11T04:08:53.161Z,2.17
2018-09-11T04:11:26.003Z,2.97
2018-09-11T04:14:03.831Z,2.57
2018-09-11T04:16:36.312Z,3.17
2018-09-11T04:19:11.132Z,3.03
2018-09-11T04:21:45.110Z,3.00
2018-09-11T04:24:17.767Z,2.50
2018-09-11T04:26:50.720Z,2.55
2018-09-11T04:29:23.342Z,2.67
2018-09-11T04:31:55.817Z,2.90
2018-09-11T04:34:28.716Z,2.63
2018-09-11T04:37:01.901Z,2.67
2018-09-11T04:39:34.464Z,2.43
2018-09-11T04:42:07.632Z,2.70
2018-09-11T04:44:40.238Z,2.70
2018-09-11T04:47:12.749Z,2.60
2018-09-11T04:49:45.628Z,2.80
2018-09-11T04:52:18.276Z,2.57
2018-09-11T04:54:51.382Z,2.50
2018-09-11T04:57:24.504Z,2.73
2018-09-11T04:59:56.989Z,2.90
2018-09-11T05:02:31.767Z,2.87
2018-09-11T05:05:04.866Z,2.70
2018-09-11T05:07:37.813Z,2.93
2018-09-11T05:10:10.559Z,2.50
2018-09-11T05:12:42.913Z,2.90
2018-09-11T05:15:16.816Z,2.85
2018-09-11T05:17:50.636Z,2.60
2018-09-11T05:20:23.337Z,2.80
2018-09-11T05:22:58.837Z,2.53
2018-09-11T05:25:31.618Z,3.00
2018-09-11T05:28:04.184Z,2.90
2018-09-11T05:30:37.204Z,3.20
2018-09-11T05:33:10.178Z,3.50
2018-09-11T05:35:43.896Z,3.10
2018-09-11T05:38:18.014Z,3.40
2018-09-11T05:40:50.788Z,3.40
2018-09-11T05:43:24.320Z,3.40
2018-09-11T05:45:57.215Z,3.40
2018-09-11T05:48:31.951Z,4.03
2018-09-11T05:51:05.840Z,3.57
2018-09-11T05:53:38.781Z,3.43
2018-09-11T05:56:13.407Z,3.57
2018-09-11T05:58:46.786Z,3.57
2018-09-11T06:01:20.576Z,3.67
2018-09-11T06:03:53.102Z,3.17
2018-09-11T06:06:25.740Z,3.50
2018-09-11T06:08:59.055Z,3.87
2018-09-11T06:11:31.805Z,3.37
2018-09-11T06:14:09.369Z,3.60
2018-09-11T06:16:42.578Z,3.60
2018-09-11T06:19:15.757Z,3.47
2018-09-11T06:21:51.221Z,3.87
2018-09-11T06:24:25.031Z,3.83
2018-09-11T06:26:57.605Z,3.30
2018-09-11T06:29:31.501Z,3.40
2018-09-11T06:32:04.041Z,3.43
2018-09-11T06:34:37.630Z,4.00
2018-09-11T06:37:15.004Z,3.10
2018-09-11T06:39:47.664Z,3.30
2018-09-11T06:42:20.199Z,3.00
2018-09-11T06:44:53.201Z,3.20
2018-09-11T06:47:25.756Z,3.50
2018-09-11T06:49:59.017Z,3.10
2018-09-11T06:52:33.776Z,3.30
2018-09-11T06:55:07.441Z,3.13
2018-09-11T06:57:39.987Z,3.37
2018-09-11T07:00:14.440Z,3.33
2018-09-11T07:02:46.801Z,3.58
2018-09-11T07:05:19.327Z,3.25
2018-09-11T07:07:52.201Z,3.10
2018-09-11T07:10:26.140Z,2.80
2018-09-11T07:13:00.832Z,3.33
2018-09-11T07:15:41.569Z,3.30
2018-09-11T07:18:15.855Z,3.10
2018-09-11T07:20:48.464Z,2.73
2018-09-11T07:23:21.957Z,3.00
2018-09-11T07:25:55.567Z,2.47
2018-09-11T07:28:28.888Z,2.90
2018-09-11T07:31:01.807Z,2.93
2018-09-11T07:33:34.496Z,2.93
2018-09-11T07:36:07.404Z,3.00
2018-09-11T07:38:41.549Z,2.97
2018-09-11T07:41:15.147Z,2.80
2018-09-11T07:43:47.847Z,3.10
2018-09-11T07:46:22.447Z,2.77
2018-09-11T07:48:55.028Z,2.53
2018-09-11T07:51:28.700Z,2.80
2018-09-11T07:54:02.760Z,2.53
2018-09-11T07:56:36.789Z,2.80
2018-09-11T07:59:09.874Z,2.73
2018-09-11T08:01:43.256Z,2.20
2018-09-11T08:04:17.408Z,2.30
2018-09-11T08:06:50.073Z,2.80
2018-09-11T08:09:25.703Z,2.20
2018-09-11T08:12:02.224Z,2.43
2018-09-11T08:14:34.675Z,2.47
2018-09-11T08:17:08.746Z,2.73
2018-09-11T08:19:44.344Z,2.40
2018-09-11T08:22:17.187Z,2.10
2018-09-11T08:24:52.428Z,2.20
2018-09-11T08:27:25.658Z,2.20
2018-09-11T08:29:59.236Z,2.37
2018-09-11T08:32:35.313Z,2.40
2018-09-11T08:35:10.824Z,2.00
2018-09-11T08:37:43.563Z,2.00
2018-09-11T08:40:19.594Z,1.90
2018-09-11T08:42:54.552Z,1.67
2018-09-11T08:45:28.515Z,1.80
2018-09-11T08:48:02.396Z,1.50
2018-09-11T08:50:35.640Z,1.60
2018-09-11T08:53:10.369Z,1.60
2018-09-11T08:55:44.657Z,1.30
2018-09-11T08:58:17.441Z,1.13
2018-09-11T09:00:51.640Z,1.20
2018-09-11T09:03:25.432Z,1.40
2018-09-11T09:05:58.864Z,1.33
2018-09-11T09:08:31.521Z,1.30
2018-09-11T09:11:06.448Z,1.30
2018-09-11T09:13:39.028Z,1.50
2018-09-11T09:16:11.459Z,1.63
2018-09-11T09:18:44.504Z,1.37
2018-09-11T09:21:17.280Z,1.30
2018-09-11T09:23:49.897Z,1.73
2018-09-11T09:26:22.908Z,1.43
2018-09-11T09:28:56.589Z,1.70
2018-09-11T09:31:31.500Z,1.70
2018-09-11T09:34:05.200Z,1.53
2018-09-11T09:36:38.920Z,1.77
2018-09-11T09:39:13.040Z,2.10
2018-09-11T09:41:48.972Z,1.80
2018-09-11T09:44:24.028Z,1.90
2018-09-11T09:46:58.064Z,1.60
2018-09-11T09:49:32.410Z,2.00
2018-09-11T09:52:06.663Z,2.10
2018-09-11T09:54:39.476Z,2.00
2018-09-11T09:57:12.414Z,1.57
2018-09-11T09:59:45.366Z,1.50
2018-09-11T10:02:22.365Z,1.90
2018-09-11T10:04:55.853Z,2.00
2018-09-11T10:07:30.141Z,2.03
2018-09-11T10:10:02.849Z,1.90
2018-09-11T10:12:37.384Z,1.90
2018-09-11T10:15:12.908Z,1.97
2018-09-11T10:17:46.480Z,1.80
2018-09-11T10:20:20.817Z,1.93
2018-09-11T10:22:57.973Z,1.60
2018-09-11T10:25:35.229Z,1.43
2018-09-11T10:28:09.736Z,1.97
2018-09-11T10:30:43.974Z,1.93
2018-09-11T10:33:17.433Z,1.80
2018-09-11T10:35:52.253Z,2.28
2018-09-11T10:38:25.446Z,2.33
2018-09-11T10:41:00.656Z,1.70
2018-09-11T10:43:33.451Z,1.87
2018-09-11T10:46:06.952Z,2.17
2018-09-11T10:48:40.293Z,2.30
2018-09-11T10:51:15.373Z,2.20
2018-09-11T10:53:48.882Z,1.87
2018-09-11T10:56:22.678Z,2.30
2018-09-11T10:58:55.651Z,2.00
2018-09-11T11:01:29.108Z,2.10
2018-09-11T11:04:02.480Z,2.12
2018-09-11T11:06:34.979Z,1.87
2018-09-11T11:09:10.560Z,2.37
2018-09-11T11:11:44.431Z,2.10
2018-09-11T11:14:17.023Z,2.30
2018-09-11T11:16:52.291Z,2.03
2018-09-11T11:19:28.161Z,2.20
2018-09-11T11:22:00.781Z,2.20
2018-09-11T11:24:33.285Z,2.27
2018-09-11T11:27:06.173Z,2.10
2018-09-11T11:29:38.633Z,1.70
2018-09-11T11:32:13.327Z,1.80
2018-09-11T11:34:47.736Z,1.90
2018-09-11T11:37:24.158Z,1.90
2018-09-11T11:39:59.760Z,1.80
2018-09-11T11:42:35.198Z,1.93
2018-09-11T11:45:08.777Z,2.10
2018-09-11T11:47:44.598Z,1.80
2018-09-11T11:50:18.373Z,2.30
2018-09-11T11:52:51.864Z,2.13
2018-09-11T11:55:24.797Z,2.00
2018-09-11T11:57:57.317Z,2.30
2018-09-11T12:00:30.704Z,1.90
2018-09-11T12:03:07.468Z,2.20
2018-09-11T12:05:40.815Z,1.87
2018-09-11T12:08:14.413Z,2.10
2018-09-11T12:10:50.285Z,2.80
2018-09-11T12:13:23.685Z,1.73
2018-09-11T12:15:59.261Z,2.13
2018-09-11T12:18:34.804Z,1.93
2018-09-11T12:21:09.057Z,2.43
2018-09-11T12:23:42.249Z,2.23
2018-09-11T12:26:14.795Z,2.30
2018-09-11T12:28:51.904Z,2.53
2018-09-11T12:31:28.913Z,1.90
2018-09-11T12:34:01.613Z,2.20
2018-09-11T12:36:39.077Z,1.97
2018-09-11T12:39:13.687Z,2.47
2018-09-11T12:41:50.621Z,2.13
2018-09-11T12:44:24.381Z,1.97
2018-09-11T12:46:57.095Z,2.10
2018-09-11T12:49:32.736Z,2.05
2018-09-11T12:52:06.408Z,2.10
2018-09-11T12:54:39.033Z,2.27
2018-09-11T12:57:14.654Z,2.43
2018-09-11T12:59:50.361Z,2.10
2018-09-11T13:02:23.982Z,1.77
2018-09-11T13:05:04.062Z,2.23
2018-09-11T13:07:47.541Z,2.00
2018-09-11T13:10:20.655Z,1.90
2018-09-11T13:12:55.541Z,1.70
2018-09-11T13:15:29.452Z,2.00
2018-09-11T13:18:02.188Z,2.50
2018-09-11T13:20:37.295Z,2.17
2018-09-11T13:23:11.154Z,2.33
2018-09-11T13:25:47.477Z,2.13
2018-09-11T13:28:37.361Z,2.00
2018-09-11T13:31:13.356Z,2.25
2018-09-11T13:33:49.019Z,2.10
2018-09-11T13:36:25.699Z,2.00
2018-09-11T13:38:59.338Z,2.30
2018-09-11T13:41:33.764Z,2.17
2018-09-11T13:44:06.478Z,1.90
2018-09-11T13:46:41.961Z,1.83
2018-09-11T13:49:17.302Z,1.70
2018-09-11T13:51:50.624Z,2.30
2018-09-11T13:54:27.007Z,2.30
2018-09-11T13:57:01.276Z,2.03
2018-09-11T13:59:36.336Z,1.77
2018-09-11T14:02:12.085Z,1.87
2018-09-11T14:04:46.750Z,2.20
2018-09-11T14:07:22.252Z,2.10
2018-09-11T14:09:57.594Z,1.93
2018-09-11T14:12:30.777Z,2.10
2018-09-11T14:15:07.007Z,1.83
2018-09-11T14:17:40.969Z,1.83
2018-09-11T14:20:15.893Z,2.20
2018-09-11T14:22:51.428Z,2.20
2018-09-11T14:25:24.106Z,1.63
2018-09-11T14:27:58.378Z,2.17
2018-09-11T14:30:31.036Z,1.67
2018-09-11T14:33:05.529Z,2.20
2018-09-11T14:35:38.480Z,2.20
2018-09-11T14:38:15.215Z,2.00
2018-09-11T14:40:49.697Z,1.80
2018-09-11T14:43:24.384Z,1.90
2018-09-11T14:45:58.564Z,2.03
2018-09-11T14:48:54.668Z,1.97
2018-09-11T14:51:30.077Z,2.05
2018-09-11T14:54:06.464Z,2.30
2018-09-11T14:56:39.413Z,1.80
2018-09-11T14:59:15.961Z,2.00
2018-09-11T15:01:53.777Z,1.83
2018-09-11T15:04:31.628Z,1.50
2018-09-11T15:07:07.340Z,1.97
2018-09-11T15:09:44.537Z,2.13
2018-09-11T15:12:21.450Z,2.03
2018-09-11T15:14:55.254Z,2.00
2018-09-11T15:17:29.287Z,2.17
2018-09-11T15:20:05.340Z,2.17
2018-09-11T15:22:40.440Z,2.20
2018-09-11T15:25:14.401Z,2.07
2018-09-11T15:27:48.613Z,1.90
2018-09-11T15:30:23.745Z,2.20
2018-09-11T15:32:56.414Z,2.13
2018-09-11T15:35:30.053Z,1.80
2018-09-11T15:38:03.329Z,1.83
2018-09-11T15:40:35.843Z,1.90
2018-09-11T15:43:11.795Z,2.20
2018-09-11T15:45:46.692Z,2.30
2018-09-11T15:48:19.253Z,1.97
2018-09-11T15:50:53.978Z,2.30
2018-09-11T15:53:27.227Z,2.00
2018-09-11T15:55:59.933Z,2.00
2018-09-11T15:58:34.685Z,2.30
2018-09-11T16:01:08.255Z,2.20
2018-09-11T16:03:44.313Z,2.28
2018-09-11T16:06:16.993Z,2.30
2018-09-11T16:08:50.716Z,2.00
2018-09-11T16:11:25.908Z,2.00
2018-09-11T16:13:58.613Z,2.03
2018-09-11T16:16:33.762Z,2.28
2018-09-11T16:19:06.688Z,2.27
2018-09-11T16:21:40.139Z,2.33
2018-09-11T16:24:13.211Z,2.23
2018-09-11T16:26:45.920Z,1.77
2018-09-11T16:29:18.508Z,2.10
2018-09-11T16:31:52.094Z,1.73
2018-09-11T16:34:25.814Z,2.20
2018-09-11T16:37:10.730Z,2.17
2018-09-11T16:39:49.246Z,2.20
2018-09-11T16:42:29.648Z,1.83
2018-09-11T16:45:09.105Z,1.97
2018-09-11T16:47:43.694Z,2.00
2018-09-11T16:50:23.484Z,2.17
2018-09-11T16:52:59.350Z,2.00
2018-09-11T16:55:33.688Z,2.03
2018-09-11T16:58:11.355Z,1.97
2018-09-11T17:00:44.359Z,2.00
2018-09-11T17:03:18.065Z,2.00
2018-09-11T17:05:55.591Z,2.00
2018-09-11T17:08:33.175Z,1.90
2018-09-11T17:11:06.786Z,2.00
2018-09-11T17:13:45.741Z,2.00
2018-09-11T17:16:20.762Z,1.97
2018-09-11T17:18:53.974Z,1.70
2018-09-11T17:21:28.757Z,1.97
2018-09-11T17:24:05.376Z,2.27
2018-09-11T17:26:38.607Z,2.17
2018-09-11T17:29:12.177Z,1.77
2018-09-11T17:31:46.742Z,2.00
2018-09-11T17:34:23.297Z,1.80
2018-09-11T17:36:58.672Z,2.20
2018-09-11T17:39:34.729Z,2.00
2018-09-11T17:42:08.715Z,1.87
2018-09-11T17:44:44.752Z,2.10
2018-09-11T17:47:27.810Z,2.17
2018-09-11T17:50:01.796Z,2.10
2018-09-11T17:52:41.816Z,2.10
2018-09-11T17:55:16.528Z,2.12
2018-09-11T17:57:53.637Z,1.83
2018-09-11T18:00:27.084Z,2.13
2018-09-11T18:03:05.313Z,2.20
2018-09-11T18:05:38.784Z,2.00
2018-09-11T18:08:13.105Z,1.93
2018-09-11T18:10:48.556Z,1.87
2018-09-11T18:13:23.490Z,2.03
2018-09-11T18:15:57.748Z,2.37
2018-09-11T18:18:30.992Z,1.97
2018-09-11T18:21:07.229Z,2.20
2018-09-11T18:23:40.736Z,1.93
2018-09-11T18:26:17.498Z,2.00
2018-09-11T18:28:52.772Z,2.10
2018-09-11T18:31:28.392Z,2.33
2018-09-11T18:34:02.391Z,2.40
2018-09-11T18:36:35.865Z,2.20
2018-09-11T18:39:13.867Z,2.20
2018-09-11T18:41:46.770Z,1.97
2018-09-11T18:44:24.358Z,2.30
2018-09-11T18:46:59.134Z,2.57
2018-09-11T18:49:31.849Z,2.50
2018-09-11T18:52:06.002Z,2.83
2018-09-11T18:54:42.081Z,2.80
2018-09-11T18:57:16.131Z,2.57
2018-09-11T18:59:48.734Z,2.07
2018-09-11T19:02:21.905Z,2.30
2018-09-11T19:04:56.477Z,3.03
2018-09-11T19:07:30.818Z,2.63
2018-09-11T19:10:05.643Z,2.50
2018-09-11T19:12:40.366Z,2.30
2018-09-11T19:15:18.601Z,2.60
2018-09-11T19:17:55.043Z,3.03
2018-09-11T19:20:28.716Z,2.63
2018-09-11T19:23:02.800Z,2.70
2018-09-11T19:25:38.637Z,2.40
2018-09-11T19:28:25.890Z,2.30
2018-09-11T19:31:01.018Z,2.63
2018-09-11T19:33:34.293Z,2.60
2018-09-11T19:36:07.292Z,2.67
2018-09-11T19:38:42.917Z,2.90
2018-09-11T19:41:21.481Z,2.80
2018-09-11T19:43:56.441Z,3.75
2018-09-11T19:46:32.752Z,4.15
2018-09-11T19:49:14.308Z,2.70
2018-09-11T19:51:52.374Z,2.40
2018-09-11T19:54:25.516Z,2.63
2018-09-11T19:56:59.020Z,2.37
2018-09-11T19:59:39.140Z,2.90
2018-09-11T20:02:13.465Z,2.70
2018-09-11T20:04:49.157Z,3.30
2018-09-11T20:07:23.062Z,2.60
2018-09-11T20:09:55.641Z,2.53
2018-09-11T20:12:29.535Z,2.60
2018-09-11T20:15:03.583Z,2.30
2018-09-11T20:17:36.677Z,2.60
2018-09-11T20:20:12.789Z,2.43
2018-09-11T20:22:46.241Z,2.40
2018-09-11T20:25:20.660Z,2.43
2018-09-11T20:27:58.677Z,2.50
2018-09-11T20:30:40.289Z,2.45
2018-09-11T20:33:13.521Z,2.57
2018-09-11T20:35:47.943Z,2.20
2018-09-11T20:38:23.622Z,2.90
2018-09-11T20:41:01.860Z,2.70
2018-09-11T20:43:34.677Z,2.80
2018-09-11T20:46:10.290Z,2.70
2018-09-11T20:48:48.364Z,2.53
2018-09-11T20:51:23.104Z,2.67
2018-09-11T20:54:00.718Z,2.43
2018-09-11T20:56:35.588Z,2.50
2018-09-11T20:59:12.860Z,2.67
2018-09-11T21:01:48.798Z,2.80
2018-09-11T21:04:26.060Z,2.90
2018-09-11T21:06:59.004Z,3.77
2018-09-11T21:09:32.865Z,3.23
2018-09-11T21:12:06.245Z,3.00
2018-09-11T21:14:49.639Z,3.00
2018-09-11T21:17:25.530Z,2.40
2018-09-11T21:19:59.357Z,2.43
2018-09-11T21:22:35.991Z,3.50
2018-09-11T21:25:11.307Z,2.83
2018-09-11T21:27:45.405Z,2.53
2018-09-11T21:30:19.918Z,2.60
2018-09-11T21:32:56.599Z,2.97
2018-09-11T21:35:29.946Z,2.90
2018-09-11T21:38:05.673Z,3.00
2018-09-11T21:40:38.158Z,3.00
2018-09-11T21:43:12.172Z,2.47
2018-09-11T21:45:46.206Z,2.90
2018-09-11T21:48:19.472Z,2.70
2018-09-11T21:50:52.595Z,2.53
2018-09-11T21:53:25.631Z,3.00
2018-09-11T21:55:59.379Z,2.50
2018-09-11T21:58:33.592Z,2.50
2018-09-11T22:01:13.453Z,2.93
2018-09-11T22:03:48.850Z,2.47
2018-09-11T22:06:24.392Z,2.92
2018-09-11T22:08:58.965Z,3.13
2018-09-11T22:11:33.162Z,2.53
2018-09-11T22:14:07.908Z,2.93
2018-09-11T22:16:41.853Z,2.87
2018-09-11T22:19:15.255Z,2.47
2018-09-11T22:21:48.760Z,2.50
2018-09-11T22:24:25.034Z,2.27
2018-09-11T22:26:57.736Z,2.63
2018-09-11T22:29:30.941Z,3.03
2018-09-11T22:32:04.828Z,3.07
2018-09-11T22:34:38.292Z,2.80
2018-09-11T22:37:10.917Z,2.43
2018-09-11T22:39:45.703Z,2.70
2018-09-11T22:42:18.705Z,2.60
2018-09-11T22:44:52.440Z,3.12
2018-09-11T22:47:27.456Z,2.70
2018-09-11T22:50:00.121Z,2.30
2018-09-11T22:52:34.456Z,2.40
2018-09-11T22:55:07.323Z,3.15
2018-09-11T22:57:40.580Z,2.53
2018-09-11T23:00:15.460Z,3.00
2018-09-11T23:02:50.997Z,3.30
2018-09-11T23:05:24.617Z,2.90
2018-09-11T23:07:58.254Z,3.03
2018-09-11T23:10:31.133Z,2.83
2018-09-11T23:13:04.300Z,2.90
2018-09-11T23:15:37.448Z,2.67
2018-09-11T23:18:10.599Z,3.10
2018-09-11T23:20:43.097Z,2.63
2018-09-11T23:23:15.865Z,2.63
2018-09-11T23:25:51.335Z,2.33
2018-09-11T23:28:23.996Z,3.22
2018-09-11T23:30:57.836Z,2.97
2018-09-11T23:33:30.755Z,2.93
2018-09-11T23:36:04.193Z,3.13
2018-09-11T23:38:36.742Z,2.97
2018-09-11T23:41:13.442Z,2.90
2018-09-11T23:43:47.117Z,3.17
2018-09-11T23:46:19.756Z,3.20
2018-09-11T23:48:52.577Z,3.47
2018-09-11T23:51:25.219Z,3.27
2018-09-11T23:53:57.666Z,3.00
2018-09-11T23:56:31.080Z,3.20
2018-09-11T23:59:06.280Z,3.33
